sensor_id;sensor_type;location;lat;lon;timestamp;temperature;humidity
19888;DHT22;10106;51.332;12.336;2023-05-29T00:00:57;13.20;99.90
19888;DHT22;10106;51.332;12.336;2023-05-29T00:03:22;13.20;99.90
19888;DHT22;10106;51.332;12.336;2023-05-29T00:05:48;13.10;99.90
19888;DHT22;10106;51.332;12.336;2023-05-29T00:08:14;13.10;99.90
19888;DHT22;10106;51.332;12.336;2023-05-29T00:10:41;13.00;99.90
19888;DHT22;10106;51.332;12.336;2023-05-29T00:13:06;12.90;99.90
19888;DHT22;10106;51.332;12.336;2023-05-29T00:15:32;12.80;99.90
19888;DHT22;10106;51.332;12.336;2023-05-29T00:17:58;12.70;99.90
19888;DHT22;10106;51.332;12.336;2023-05-29T00:20:24;12.70;99.90
19888;DHT22;10106;51.332;12.336;2023-05-29T00:22:49;12.70;99.90
19888;DHT22;10106;51.332;12.336;2023-05-29T00:25:15;12.70;99.90
19888;DHT22;10106;51.332;12.336;2023-05-29T00:27:41;12.60;99.90
19888;DHT22;10106;51.332;12.336;2023-05-29T00:30:08;12.60;99.90
19888;DHT22;10106;51.332;12.336;2023-05-29T00:32:34;12.50;99.90
19888;DHT22;10106;51.332;12.336;2023-05-29T00:35:00;12.40;99.90
19888;DHT22;10106;51.332;12.336;2023-05-29T00:37:25;12.40;99.90
19888;DHT22;10106;51.332;12.336;2023-05-29T00:39:51;12.40;99.90
19888;DHT22;10106;51.332;12.336;2023-05-29T00:42:17;12.40;99.90
19888;DHT22;10106;51.332;12.336;2023-05-29T00:44:43;12.40;99.90
19888;DHT22;10106;51.332;12.336;2023-05-29T00:47:08;12.30;99.90
19888;DHT22;10106;51.332;12.336;2023-05-29T00:49:36;12.20;99.90
19888;DHT22;10106;51.332;12.336;2023-05-29T00:52:05;12.10;99.90
19888;DHT22;10106;51.332;12.336;2023-05-29T00:54:33;12.10;99.90
19888;DHT22;10106;51.332;12.336;2023-05-29T00:56:59;12.10;99.90
19888;DHT22;10106;51.332;12.336;2023-05-29T00:59:27;12.20;99.90
19888;DHT22;10106;51.332;12.336;2023-05-29T01:01:55;12.20;99.90
19888;DHT22;10106;51.332;12.336;2023-05-29T01:04:22;12.20;99.90
19888;DHT22;10106;51.332;12.336;2023-05-29T01:06:49;12.20;99.90
19888;DHT22;10106;51.332;12.336;2023-05-29T01:09:15;12.20;99.90
19888;DHT22;10106;51.332;12.336;2023-05-29T01:14:36;12.10;99.90
19888;DHT22;10106;51.332;12.336;2023-05-29T01:17:24;12.10;99.90
19888;DHT22;10106;51.332;12.336;2023-05-29T01:20:31;12.00;99.90
19888;DHT22;10106;51.332;12.336;2023-05-29T01:28:44;11.80;99.90
19888;DHT22;10106;51.332;12.336;2023-05-29T01:31:13;11.90;99.90
19888;DHT22;10106;51.332;12.336;2023-05-29T01:33:42;11.90;99.90
19888;DHT22;10106;51.332;12.336;2023-05-29T01:36:10;11.90;99.90
19888;DHT22;10106;51.332;12.336;2023-05-29T01:38:37;11.90;99.90
19888;DHT22;10106;51.332;12.336;2023-05-29T01:41:03;12.00;99.90
19888;DHT22;10106;51.332;12.336;2023-05-29T01:43:30;12.00;99.90
19888;DHT22;10106;51.332;12.336;2023-05-29T01:45:56;12.00;99.90
19888;DHT22;10106;51.332;12.336;2023-05-29T01:48:23;12.00;99.90
19888;DHT22;10106;51.332;12.336;2023-05-29T01:50:49;12.00;99.90
19888;DHT22;10106;51.332;12.336;2023-05-29T01:53:15;12.00;99.90
19888;DHT22;10106;51.332;12.336;2023-05-29T01:55:42;12.00;99.90
19888;DHT22;10106;51.332;12.336;2023-05-29T01:58:07;11.90;99.90
19888;DHT22;10106;51.332;12.336;2023-05-29T02:00:34;11.90;99.90
19888;DHT22;10106;51.332;12.336;2023-05-29T02:03:00;11.90;99.90
19888;DHT22;10106;51.332;12.336;2023-05-29T02:05:27;11.90;99.90
19888;DHT22;10106;51.332;12.336;2023-05-29T02:07:53;11.90;99.90
19888;DHT22;10106;51.332;12.336;2023-05-29T02:10:18;11.80;99.90
19888;DHT22;10106;51.332;12.336;2023-05-29T02:12:45;11.80;99.90
19888;DHT22;10106;51.332;12.336;2023-05-29T02:15:10;11.90;99.90
19888;DHT22;10106;51.332;12.336;2023-05-29T02:17:36;11.80;99.90
19888;DHT22;10106;51.332;12.336;2023-05-29T02:20:02;11.70;99.90
19888;DHT22;10106;51.332;12.336;2023-05-29T02:22:31;11.70;99.90
19888;DHT22;10106;51.332;12.336;2023-05-29T02:24:57;11.70;99.90
19888;DHT22;10106;51.332;12.336;2023-05-29T02:27:23;11.60;99.90
19888;DHT22;10106;51.332;12.336;2023-05-29T02:29:49;11.60;99.90
19888;DHT22;10106;51.332;12.336;2023-05-29T02:32:14;11.50;99.90
19888;DHT22;10106;51.332;12.336;2023-05-29T02:34:40;11.50;99.90
19888;DHT22;10106;51.332;12.336;2023-05-29T02:37:06;11.50;99.90
19888;DHT22;10106;51.332;12.336;2023-05-29T02:39:31;11.40;99.90
19888;DHT22;10106;51.332;12.336;2023-05-29T02:41:57;11.40;99.90
19888;DHT22;10106;51.332;12.336;2023-05-29T02:44:23;11.40;99.90
19888;DHT22;10106;51.332;12.336;2023-05-29T02:46:49;11.40;99.90
19888;DHT22;10106;51.332;12.336;2023-05-29T02:49:14;11.40;99.90
19888;DHT22;10106;51.332;12.336;2023-05-29T02:51:40;11.40;99.90
19888;DHT22;10106;51.332;12.336;2023-05-29T02:54:06;11.30;99.90
19888;DHT22;10106;51.332;12.336;2023-05-29T02:56:31;11.30;99.90
19888;DHT22;10106;51.332;12.336;2023-05-29T02:58:57;11.30;99.90
19888;DHT22;10106;51.332;12.336;2023-05-29T03:01:23;11.30;99.90
19888;DHT22;10106;51.332;12.336;2023-05-29T03:03:48;11.20;99.90
19888;DHT22;10106;51.332;12.336;2023-05-29T03:06:14;11.20;99.90
19888;DHT22;10106;51.332;12.336;2023-05-29T03:08:41;11.20;99.90
19888;DHT22;10106;51.332;12.336;2023-05-29T03:11:11;11.10;99.90
19888;DHT22;10106;51.332;12.336;2023-05-29T03:13:39;11.10;99.90
19888;DHT22;10106;51.332;12.336;2023-05-29T03:16:05;11.20;99.90
19888;DHT22;10106;51.332;12.336;2023-05-29T03:18:33;11.20;99.90
19888;DHT22;10106;51.332;12.336;2023-05-29T03:21:00;11.20;99.90
19888;DHT22;10106;51.332;12.336;2023-05-29T03:23:29;11.20;99.90
19888;DHT22;10106;51.332;12.336;2023-05-29T03:25:55;11.20;99.90
19888;DHT22;10106;51.332;12.336;2023-05-29T03:28:21;11.20;99.90
19888;DHT22;10106;51.332;12.336;2023-05-29T03:30:47;11.20;99.90
19888;DHT22;10106;51.332;12.336;2023-05-29T03:33:12;11.20;99.90
19888;DHT22;10106;51.332;12.336;2023-05-29T03:35:38;11.20;99.90
19888;DHT22;10106;51.332;12.336;2023-05-29T03:38:04;11.20;99.90
19888;DHT22;10106;51.332;12.336;2023-05-29T03:40:30;11.10;99.90
19888;DHT22;10106;51.332;12.336;2023-05-29T03:42:55;11.20;99.90
19888;DHT22;10106;51.332;12.336;2023-05-29T03:45:23;11.70;99.90
19888;DHT22;10106;51.332;12.336;2023-05-29T03:47:49;12.30;99.90
19888;DHT22;10106;51.332;12.336;2023-05-29T03:50:15;12.90;99.90
19888;DHT22;10106;51.332;12.336;2023-05-29T03:52:41;13.70;99.90
19888;DHT22;10106;51.332;12.336;2023-05-29T03:55:09;14.30;99.90
19888;DHT22;10106;51.332;12.336;2023-05-29T03:57:39;14.80;99.90
19888;DHT22;10106;51.332;12.336;2023-05-29T04:00:07;15.20;99.90
19888;DHT22;10106;51.332;12.336;2023-05-29T04:02:34;15.70;99.90
19888;DHT22;10106;51.332;12.336;2023-05-29T04:05:00;16.00;99.90
19888;DHT22;10106;51.332;12.336;2023-05-29T04:07:26;16.40;99.90
19888;DHT22;10106;51.332;12.336;2023-05-29T04:09:51;16.90;99.90
19888;DHT22;10106;51.332;12.336;2023-05-29T04:12:17;17.20;99.90
19888;DHT22;10106;51.332;12.336;2023-05-29T04:14:43;17.60;99.90
19888;DHT22;10106;51.332;12.336;2023-05-29T04:17:08;17.50;99.90
19888;DHT22;10106;51.332;12.336;2023-05-29T04:19:34;17.70;99.90
19888;DHT22;10106;51.332;12.336;2023-05-29T04:22:00;18.10;99.90
19888;DHT22;10106;51.332;12.336;2023-05-29T04:24:26;18.30;99.90
19888;DHT22;10106;51.332;12.336;2023-05-29T04:26:51;18.70;99.90
19888;DHT22;10106;51.332;12.336;2023-05-29T04:29:17;19.00;99.90
19888;DHT22;10106;51.332;12.336;2023-05-29T04:31:43;19.00;99.90
19888;DHT22;10106;51.332;12.336;2023-05-29T04:34:09;19.20;99.90
19888;DHT22;10106;51.332;12.336;2023-05-29T04:36:35;19.40;99.70
19888;DHT22;10106;51.332;12.336;2023-05-29T04:39:05;19.80;99.10
19888;DHT22;10106;51.332;12.336;2023-05-29T04:41:31;20.10;98.10
19888;DHT22;10106;51.332;12.336;2023-05-29T04:43:57;20.00;97.90
19888;DHT22;10106;51.332;12.336;2023-05-29T04:46:24;20.40;97.50
19888;DHT22;10106;51.332;12.336;2023-05-29T04:48:53;20.90;96.40
19888;DHT22;10106;51.332;12.336;2023-05-29T04:51:20;21.10;96.00
19888;DHT22;10106;51.332;12.336;2023-05-29T04:53:47;21.40;95.30
19888;DHT22;10106;51.332;12.336;2023-05-29T04:56:13;21.70;94.80
19888;DHT22;10106;51.332;12.336;2023-05-29T04:58:41;22.10;94.20
19888;DHT22;10106;51.332;12.336;2023-05-29T05:06:17;23.70;90.90
19888;DHT22;10106;51.332;12.336;2023-05-29T05:08:44;24.30;89.50
19888;DHT22;10106;51.332;12.336;2023-05-29T05:11:10;24.60;87.10
19888;DHT22;10106;51.332;12.336;2023-05-29T05:13:35;24.50;85.40
19888;DHT22;10106;51.332;12.336;2023-05-29T05:16:01;24.50;83.80
19888;DHT22;10106;51.332;12.336;2023-05-29T05:18:27;24.90;83.90
19888;DHT22;10106;51.332;12.336;2023-05-29T05:20:53;25.30;82.10
19888;DHT22;10106;51.332;12.336;2023-05-29T05:23:18;25.70;79.40
19888;DHT22;10106;51.332;12.336;2023-05-29T05:25:44;26.10;76.90
19888;DHT22;10106;51.332;12.336;2023-05-29T05:28:11;25.80;76.40
19888;DHT22;10106;51.332;12.336;2023-05-29T05:30:40;25.90;74.80
19888;DHT22;10106;51.332;12.336;2023-05-29T05:33:06;25.80;73.90
19888;DHT22;10106;51.332;12.336;2023-05-29T05:35:32;26.30;74.30
19888;DHT22;10106;51.332;12.336;2023-05-29T05:37:58;26.60;72.40
19888;DHT22;10106;51.332;12.336;2023-05-29T05:40:25;26.40;71.10
19888;DHT22;10106;51.332;12.336;2023-05-29T05:42:51;26.70;69.30
19888;DHT22;10106;51.332;12.336;2023-05-29T05:45:17;26.50;68.80
19888;DHT22;10106;51.332;12.336;2023-05-29T05:47:43;26.50;68.60
19888;DHT22;10106;51.332;12.336;2023-05-29T05:50:09;26.40;69.20
19888;DHT22;10106;51.332;12.336;2023-05-29T05:52:34;26.20;69.10
19888;DHT22;10106;51.332;12.336;2023-05-29T05:55:00;26.10;69.40
19888;DHT22;10106;51.332;12.336;2023-05-29T05:57:26;26.70;68.20
19888;DHT22;10106;51.332;12.336;2023-05-29T05:59:52;26.90;67.30
19888;DHT22;10106;51.332;12.336;2023-05-29T06:02:18;26.90;67.10
19888;DHT22;10106;51.332;12.336;2023-05-29T06:04:44;26.40;67.90
19888;DHT22;10106;51.332;12.336;2023-05-29T06:07:09;27.30;67.80
19888;DHT22;10106;51.332;12.336;2023-05-29T06:09:36;27.90;65.40
19888;DHT22;10106;51.332;12.336;2023-05-29T06:12:02;28.60;63.20
19888;DHT22;10106;51.332;12.336;2023-05-29T06:14:27;28.30;63.80
19888;DHT22;10106;51.332;12.336;2023-05-29T06:16:53;27.90;64.30
19888;DHT22;10106;51.332;12.336;2023-05-29T06:19:20;27.90;63.80
19888;DHT22;10106;51.332;12.336;2023-05-29T06:21:46;28.20;62.90
19888;DHT22;10106;51.332;12.336;2023-05-29T06:24:12;28.70;62.70
19888;DHT22;10106;51.332;12.336;2023-05-29T06:26:38;29.50;60.50
19888;DHT22;10106;51.332;12.336;2023-05-29T06:29:04;29.60;59.70
19888;DHT22;10106;51.332;12.336;2023-05-29T06:31:31;29.50;59.10
19888;DHT22;10106;51.332;12.336;2023-05-29T06:33:58;29.50;58.40
19888;DHT22;10106;51.332;12.336;2023-05-29T06:36:24;30.10;57.90
19888;DHT22;10106;51.332;12.336;2023-05-29T06:38:50;30.40;56.40
19888;DHT22;10106;51.332;12.336;2023-05-29T06:41:16;30.20;57.00
19888;DHT22;10106;51.332;12.336;2023-05-29T06:43:42;30.40;56.40
19888;DHT22;10106;51.332;12.336;2023-05-29T06:46:08;30.40;56.10
19888;DHT22;10106;51.332;12.336;2023-05-29T06:48:34;30.50;55.50
19888;DHT22;10106;51.332;12.336;2023-05-29T06:51:01;30.90;55.30
19888;DHT22;10106;51.332;12.336;2023-05-29T06:53:27;31.50;53.80
19888;DHT22;10106;51.332;12.336;2023-05-29T06:55:53;31.30;53.60
19888;DHT22;10106;51.332;12.336;2023-05-29T06:58:18;31.30;52.70
19888;DHT22;10106;51.332;12.336;2023-05-29T07:00:44;30.90;53.10
19888;DHT22;10106;51.332;12.336;2023-05-29T07:03:10;31.80;52.80
19888;DHT22;10106;51.332;12.336;2023-05-29T07:05:36;31.50;52.20
19888;DHT22;10106;51.332;12.336;2023-05-29T07:08:01;31.30;52.20
19888;DHT22;10106;51.332;12.336;2023-05-29T07:10:27;31.00;52.20
19888;DHT22;10106;51.332;12.336;2023-05-29T07:12:53;30.50;53.00
19888;DHT22;10106;51.332;12.336;2023-05-29T07:15:19;30.80;53.30
19888;DHT22;10106;51.332;12.336;2023-05-29T07:17:45;31.60;52.10
19888;DHT22;10106;51.332;12.336;2023-05-29T07:20:13;32.00;51.20
19888;DHT22;10106;51.332;12.336;2023-05-29T07:22:40;32.50;50.40
19888;DHT22;10106;51.332;12.336;2023-05-29T07:25:06;32.80;50.00
19888;DHT22;10106;51.332;12.336;2023-05-29T07:27:32;32.60;48.20
19888;DHT22;10106;51.332;12.336;2023-05-29T07:29:58;32.70;47.90
19888;DHT22;10106;51.332;12.336;2023-05-29T07:32:23;32.70;47.30
19888;DHT22;10106;51.332;12.336;2023-05-29T07:34:49;32.90;46.90
19888;DHT22;10106;51.332;12.336;2023-05-29T07:37:16;33.60;46.70
19888;DHT22;10106;51.332;12.336;2023-05-29T07:42:10;33.50;45.00
19888;DHT22;10106;51.332;12.336;2023-05-29T07:44:36;32.70;46.40
19888;DHT22;10106;51.332;12.336;2023-05-29T07:47:01;32.00;46.30
19888;DHT22;10106;51.332;12.336;2023-05-29T07:49:27;32.70;46.00
19888;DHT22;10106;51.332;12.336;2023-05-29T07:51:53;33.20;44.40
19888;DHT22;10106;51.332;12.336;2023-05-29T07:54:19;33.20;44.00
19888;DHT22;10106;51.332;12.336;2023-05-29T07:56:46;33.50;44.00
19888;DHT22;10106;51.332;12.336;2023-05-29T07:59:12;33.60;42.90
19888;DHT22;10106;51.332;12.336;2023-05-29T08:01:38;33.30;43.70
19888;DHT22;10106;51.332;12.336;2023-05-29T08:04:09;33.50;43.10
19888;DHT22;10106;51.332;12.336;2023-05-29T08:06:35;33.70;42.90
19888;DHT22;10106;51.332;12.336;2023-05-29T08:09:02;33.80;41.10
19888;DHT22;10106;51.332;12.336;2023-05-29T08:11:28;34.00;40.90
19888;DHT22;10106;51.332;12.336;2023-05-29T08:13:54;33.80;41.20
19888;DHT22;10106;51.332;12.336;2023-05-29T08:16:20;32.90;42.20
19888;DHT22;10106;51.332;12.336;2023-05-29T08:18:47;33.00;41.50
19888;DHT22;10106;51.332;12.336;2023-05-29T08:21:13;31.70;42.40
19888;DHT22;10106;51.332;12.336;2023-05-29T08:23:39;31.90;43.00
19888;DHT22;10106;51.332;12.336;2023-05-29T08:26:05;32.50;42.70
19888;DHT22;10106;51.332;12.336;2023-05-29T08:28:31;33.00;41.20
19888;DHT22;10106;51.332;12.336;2023-05-29T08:30:56;32.50;41.50
19888;DHT22;10106;51.332;12.336;2023-05-29T08:33:22;32.60;41.60
19888;DHT22;10106;51.332;12.336;2023-05-29T08:35:48;33.20;41.10
19888;DHT22;10106;51.332;12.336;2023-05-29T08:38:14;33.70;40.50
19888;DHT22;10106;51.332;12.336;2023-05-29T08:40:40;33.50;40.10
19888;DHT22;10106;51.332;12.336;2023-05-29T08:43:17;33.40;40.80
19888;DHT22;10106;51.332;12.336;2023-05-29T08:45:47;33.30;40.40
19888;DHT22;10106;51.332;12.336;2023-05-29T08:48:14;32.80;40.60
19888;DHT22;10106;51.332;12.336;2023-05-29T08:50:44;32.00;41.40
19888;DHT22;10106;51.332;12.336;2023-05-29T08:53:14;31.80;41.30
19888;DHT22;10106;51.332;12.336;2023-05-29T08:55:41;31.20;41.90
19888;DHT22;10106;51.332;12.336;2023-05-29T08:58:07;30.30;42.60
19888;DHT22;10106;51.332;12.336;2023-05-29T09:00:34;30.00;43.40
19888;DHT22;10106;51.332;12.336;2023-05-29T09:02:59;30.40;43.50
19888;DHT22;10106;51.332;12.336;2023-05-29T09:05:26;30.70;43.60
19888;DHT22;10106;51.332;12.336;2023-05-29T09:07:53;29.80;43.40
19888;DHT22;10106;51.332;12.336;2023-05-29T09:10:19;28.80;44.80
19888;DHT22;10106;51.332;12.336;2023-05-29T09:12:46;27.60;46.20
19888;DHT22;10106;51.332;12.336;2023-05-29T09:15:21;27.50;46.70
19888;DHT22;10106;51.332;12.336;2023-05-29T09:17:56;27.50;47.10
19888;DHT22;10106;51.332;12.336;2023-05-29T09:20:26;27.10;48.00
19888;DHT22;10106;51.332;12.336;2023-05-29T09:22:57;26.70;48.80
19888;DHT22;10106;51.332;12.336;2023-05-29T09:25:24;26.30;48.50
19888;DHT22;10106;51.332;12.336;2023-05-29T09:30:45;26.30;49.40
19888;DHT22;10106;51.332;12.336;2023-05-29T09:33:14;26.90;48.80
19888;DHT22;10106;51.332;12.336;2023-05-29T09:35:41;26.80;48.50
19888;DHT22;10106;51.332;12.336;2023-05-29T09:38:09;26.50;48.70
19888;DHT22;10106;51.332;12.336;2023-05-29T09:40:39;26.70;49.30
19888;DHT22;10106;51.332;12.336;2023-05-29T09:43:16;27.30;49.10
19888;DHT22;10106;51.332;12.336;2023-05-29T09:45:49;28.40;47.10
19888;DHT22;10106;51.332;12.336;2023-05-29T09:48:22;29.40;47.10
19888;DHT22;10106;51.332;12.336;2023-05-29T09:50:48;30.70;45.00
19888;DHT22;10106;51.332;12.336;2023-05-29T09:53:21;31.00;44.00
19888;DHT22;10106;51.332;12.336;2023-05-29T09:55:50;30.90;44.00
19888;DHT22;10106;51.332;12.336;2023-05-29T09:58:22;31.70;42.60
19888;DHT22;10106;51.332;12.336;2023-05-29T10:00:49;32.20;42.60
19888;DHT22;10106;51.332;12.336;2023-05-29T10:03:16;32.20;41.60
19888;DHT22;10106;51.332;12.336;2023-05-29T10:05:47;32.00;41.30
19888;DHT22;10106;51.332;12.336;2023-05-29T10:08:15;30.60;42.50
19888;DHT22;10106;51.332;12.336;2023-05-29T10:10:48;29.20;44.50
19888;DHT22;10106;51.332;12.336;2023-05-29T10:13:15;28.10;46.00
19888;DHT22;10106;51.332;12.336;2023-05-29T10:15:45;26.90;47.60
19888;DHT22;10106;51.332;12.336;2023-05-29T10:21:00;25.80;48.80
19888;DHT22;10106;51.332;12.336;2023-05-29T10:23:29;25.70;49.10
19888;DHT22;10106;51.332;12.336;2023-05-29T10:26:21;25.70;50.40
19888;DHT22;10106;51.332;12.336;2023-05-29T10:28:56;25.40;50.00
19888;DHT22;10106;51.332;12.336;2023-05-29T10:31:28;25.30;50.30
19888;DHT22;10106;51.332;12.336;2023-05-29T10:40:03;24.30;50.90
19888;DHT22;10106;51.332;12.336;2023-05-29T10:42:41;24.30;50.90
19888;DHT22;10106;51.332;12.336;2023-05-29T10:45:10;24.20;51.20
19888;DHT22;10106;51.332;12.336;2023-05-29T10:47:39;24.10;51.80
19888;DHT22;10106;51.332;12.336;2023-05-29T10:50:05;24.00;53.00
19888;DHT22;10106;51.332;12.336;2023-05-29T10:52:46;24.10;51.60
19888;DHT22;10106;51.332;12.336;2023-05-29T10:55:16;24.30;51.80
19888;DHT22;10106;51.332;12.336;2023-05-29T10:57:47;24.30;51.30
19888;DHT22;10106;51.332;12.336;2023-05-29T11:00:16;24.20;51.10
19888;DHT22;10106;51.332;12.336;2023-05-29T11:02:44;24.00;50.40
19888;DHT22;10106;51.332;12.336;2023-05-29T11:05:24;24.10;50.60
19888;DHT22;10106;51.332;12.336;2023-05-29T11:07:57;24.10;51.20
19888;DHT22;10106;51.332;12.336;2023-05-29T11:10:43;24.20;50.70
19888;DHT22;10106;51.332;12.336;2023-05-29T11:13:09;24.20;50.40
19888;DHT22;10106;51.332;12.336;2023-05-29T11:15:36;24.30;50.60
19888;DHT22;10106;51.332;12.336;2023-05-29T11:18:07;24.30;50.50
19888;DHT22;10106;51.332;12.336;2023-05-29T11:25:27;24.60;49.50
19888;DHT22;10106;51.332;12.336;2023-05-29T11:27:53;24.80;49.30
19888;DHT22;10106;51.332;12.336;2023-05-29T11:30:20;24.90;49.40
19888;DHT22;10106;51.332;12.336;2023-05-29T11:32:49;24.90;50.10
19888;DHT22;10106;51.332;12.336;2023-05-29T11:35:21;24.80;49.90
19888;DHT22;10106;51.332;12.336;2023-05-29T11:37:47;24.60;51.10
19888;DHT22;10106;51.332;12.336;2023-05-29T11:40:15;24.80;51.20
19888;DHT22;10106;51.332;12.336;2023-05-29T11:42:46;24.90;51.00
19888;DHT22;10106;51.332;12.336;2023-05-29T11:45:15;24.60;51.00
19888;DHT22;10106;51.332;12.336;2023-05-29T11:47:54;24.40;51.30
19888;DHT22;10106;51.332;12.336;2023-05-29T11:50:30;24.30;51.20
19888;DHT22;10106;51.332;12.336;2023-05-29T11:52:57;24.20;51.30
19888;DHT22;10106;51.332;12.336;2023-05-29T11:55:27;24.00;51.70
19888;DHT22;10106;51.332;12.336;2023-05-29T11:57:58;23.90;51.70
19888;DHT22;10106;51.332;12.336;2023-05-29T12:00:24;23.90;51.90
19888;DHT22;10106;51.332;12.336;2023-05-29T12:02:51;24.00;51.70
19888;DHT22;10106;51.332;12.336;2023-05-29T12:05:18;24.10;51.40
19888;DHT22;10106;51.332;12.336;2023-05-29T12:07:54;24.20;51.90
19888;DHT22;10106;51.332;12.336;2023-05-29T12:10:26;24.00;51.50
19888;DHT22;10106;51.332;12.336;2023-05-29T12:12:54;23.80;51.20
19888;DHT22;10106;51.332;12.336;2023-05-29T12:15:20;24.00;50.80
19888;DHT22;10106;51.332;12.336;2023-05-29T12:17:50;24.20;50.70
19888;DHT22;10106;51.332;12.336;2023-05-29T12:20:17;24.50;50.30
19888;DHT22;10106;51.332;12.336;2023-05-29T12:22:45;24.80;49.70
19888;DHT22;10106;51.332;12.336;2023-05-29T12:25:13;25.00;49.30
19888;DHT22;10106;51.332;12.336;2023-05-29T12:27:40;24.90;49.50
19888;DHT22;10106;51.332;12.336;2023-05-29T12:30:21;24.70;49.50
19888;DHT22;10106;51.332;12.336;2023-05-29T12:32:52;24.90;49.20
19888;DHT22;10106;51.332;12.336;2023-05-29T12:35:26;24.90;49.30
19888;DHT22;10106;51.332;12.336;2023-05-29T12:38:01;24.90;49.00
19888;DHT22;10106;51.332;12.336;2023-05-29T12:40:31;25.00;48.30
19888;DHT22;10106;51.332;12.336;2023-05-29T12:43:00;25.20;48.10
19888;DHT22;10106;51.332;12.336;2023-05-29T12:45:30;25.20;48.10
19888;DHT22;10106;51.332;12.336;2023-05-29T12:47:56;25.30;47.90
19888;DHT22;10106;51.332;12.336;2023-05-29T12:50:31;25.50;47.30
19888;DHT22;10106;51.332;12.336;2023-05-29T12:55:24;25.60;46.40
19888;DHT22;10106;51.332;12.336;2023-05-29T12:57:50;25.50;47.00
19888;DHT22;10106;51.332;12.336;2023-05-29T13:00:16;25.30;47.60
19888;DHT22;10106;51.332;12.336;2023-05-29T13:02:52;25.20;48.10
19888;DHT22;10106;51.332;12.336;2023-05-29T13:05:18;25.00;48.40
19888;DHT22;10106;51.332;12.336;2023-05-29T13:07:51;24.90;48.50
19888;DHT22;10106;51.332;12.336;2023-05-29T13:10:20;24.90;48.60
19888;DHT22;10106;51.332;12.336;2023-05-29T13:12:47;24.90;47.90
19888;DHT22;10106;51.332;12.336;2023-05-29T13:15:22;24.90;48.30
19888;DHT22;10106;51.332;12.336;2023-05-29T13:17:48;25.00;48.10
19888;DHT22;10106;51.332;12.336;2023-05-29T13:20:14;24.80;48.50
19888;DHT22;10106;51.332;12.336;2023-05-29T13:22:43;24.90;49.10
19888;DHT22;10106;51.332;12.336;2023-05-29T13:25:14;24.80;49.40
19888;DHT22;10106;51.332;12.336;2023-05-29T13:27:43;25.00;49.00
19888;DHT22;10106;51.332;12.336;2023-05-29T13:30:09;25.00;48.60
19888;DHT22;10106;51.332;12.336;2023-05-29T13:32:38;25.00;48.20
19888;DHT22;10106;51.332;12.336;2023-05-29T13:35:04;25.20;47.90
19888;DHT22;10106;51.332;12.336;2023-05-29T13:37:34;25.40;48.00
19888;DHT22;10106;51.332;12.336;2023-05-29T13:40:11;25.50;48.20
19888;DHT22;10106;51.332;12.336;2023-05-29T13:42:41;25.00;48.50
19888;DHT22;10106;51.332;12.336;2023-05-29T13:45:09;24.90;48.00
19888;DHT22;10106;51.332;12.336;2023-05-29T13:47:35;24.90;47.90
19888;DHT22;10106;51.332;12.336;2023-05-29T13:50:01;24.90;48.10
19888;DHT22;10106;51.332;12.336;2023-05-29T13:52:27;24.90;49.10
19888;DHT22;10106;51.332;12.336;2023-05-29T13:54:53;24.90;49.50
19888;DHT22;10106;51.332;12.336;2023-05-29T13:57:19;25.10;48.50
19888;DHT22;10106;51.332;12.336;2023-05-29T13:59:56;25.10;48.30
19888;DHT22;10106;51.332;12.336;2023-05-29T14:02:23;25.30;48.80
19888;DHT22;10106;51.332;12.336;2023-05-29T14:04:49;25.10;48.30
19888;DHT22;10106;51.332;12.336;2023-05-29T14:07:15;24.90;48.70
19888;DHT22;10106;51.332;12.336;2023-05-29T14:09:41;24.70;48.20
19888;DHT22;10106;51.332;12.336;2023-05-29T14:12:07;24.60;48.20
19888;DHT22;10106;51.332;12.336;2023-05-29T14:14:34;24.50;48.50
19888;DHT22;10106;51.332;12.336;2023-05-29T14:17:00;24.40;48.80
19888;DHT22;10106;51.332;12.336;2023-05-29T14:19:25;24.40;49.10
19888;DHT22;10106;51.332;12.336;2023-05-29T14:21:51;24.50;49.30
19888;DHT22;10106;51.332;12.336;2023-05-29T14:24:17;24.50;49.60
19888;DHT22;10106;51.332;12.336;2023-05-29T14:26:44;24.50;50.10
19888;DHT22;10106;51.332;12.336;2023-05-29T14:29:16;24.30;50.10
19888;DHT22;10106;51.332;12.336;2023-05-29T14:31:43;24.10;49.90
19888;DHT22;10106;51.332;12.336;2023-05-29T14:34:09;24.00;50.10
19888;DHT22;10106;51.332;12.336;2023-05-29T14:36:35;23.80;51.00
19888;DHT22;10106;51.332;12.336;2023-05-29T14:39:03;23.60;51.60
19888;DHT22;10106;51.332;12.336;2023-05-29T14:41:29;23.60;52.40
19888;DHT22;10106;51.332;12.336;2023-05-29T14:43:54;23.70;52.60
19888;DHT22;10106;51.332;12.336;2023-05-29T14:46:24;23.70;52.30
19888;DHT22;10106;51.332;12.336;2023-05-29T14:48:51;23.60;52.30
19888;DHT22;10106;51.332;12.336;2023-05-29T14:51:17;23.60;52.40
19888;DHT22;10106;51.332;12.336;2023-05-29T14:53:44;23.60;52.20
19888;DHT22;10106;51.332;12.336;2023-05-29T14:56:11;23.40;52.10
19888;DHT22;10106;51.332;12.336;2023-05-29T14:58:37;23.40;52.10
19888;DHT22;10106;51.332;12.336;2023-05-29T15:01:03;23.40;51.70
19888;DHT22;10106;51.332;12.336;2023-05-29T15:03:29;23.40;51.60
19888;DHT22;10106;51.332;12.336;2023-05-29T15:05:55;23.40;51.60
19888;DHT22;10106;51.332;12.336;2023-05-29T15:08:21;23.40;51.40
19888;DHT22;10106;51.332;12.336;2023-05-29T15:10:46;23.30;50.90
19888;DHT22;10106;51.332;12.336;2023-05-29T15:13:15;23.20;51.90
19888;DHT22;10106;51.332;12.336;2023-05-29T15:15:41;23.20;51.90
19888;DHT22;10106;51.332;12.336;2023-05-29T15:18:06;23.20;52.20
19888;DHT22;10106;51.332;12.336;2023-05-29T15:20:32;23.30;52.10
19888;DHT22;10106;51.332;12.336;2023-05-29T15:22:58;23.40;52.60
19888;DHT22;10106;51.332;12.336;2023-05-29T15:25:24;23.30;52.50
19888;DHT22;10106;51.332;12.336;2023-05-29T15:27:50;23.30;52.50
19888;DHT22;10106;51.332;12.336;2023-05-29T15:30:18;23.20;52.40
19888;DHT22;10106;51.332;12.336;2023-05-29T15:32:45;23.10;52.40
19888;DHT22;10106;51.332;12.336;2023-05-29T15:35:13;23.00;53.80
19888;DHT22;10106;51.332;12.336;2023-05-29T15:37:40;22.90;53.90
19888;DHT22;10106;51.332;12.336;2023-05-29T15:40:07;22.90;55.00
19888;DHT22;10106;51.332;12.336;2023-05-29T15:42:34;22.80;54.60
19888;DHT22;10106;51.332;12.336;2023-05-29T15:45:02;22.90;54.50
19888;DHT22;10106;51.332;12.336;2023-05-29T15:47:29;22.80;53.90
19888;DHT22;10106;51.332;12.336;2023-05-29T15:49:57;22.70;53.70
19888;DHT22;10106;51.332;12.336;2023-05-29T15:52:26;22.50;53.90